Long Lake, WI (54542)

3:25 PM CDT on April 23, 2017 (GMT -0500)
Roadhouse 139 | | Change Station

Elev 1537 ft 45.84 °N, 88.67 °W | Updated 16 seconds ago

Overcast
Overcast
39.7 °F
Feels Like 40 °F
N
1.3
Wind Variable Wind from ESE
Gusts 2.5 mph

Today
High -- | Low -- °F
--% Chance of Precip.
Yesterday
High -- | Low -- °F
Precip. -- in
Pressure 30.17 in
Visibility 10.0 miles
Clouds Overcast 3200 ft
Windchill 40 °F
Dew Point 33 °F
Humidity 77%
Rainfall 0.00 in
Snow Depth Not available.
5:54 AM 7:52 PM
Waning Crescent, 10% visible
METAR KIMT 231954Z AUTO 36006KT 10SM -RA OVC032 05/M03 A3013 RMK AO2 RAB52 SLP215 P0000 T00501028
Pressure 30.17 in
Visibility 10.0 miles
Clouds Overcast 3200 ft
Windchill 40 °F
Dew Point 33 °F
Humidity 77%
Rainfall 0.00 in
Snow Depth Not available.
5:54 AM 7:52 PM
Waning Crescent, 10% visible
METAR KIMT 231954Z AUTO 36006KT 10SM -RA OVC032 05/M03 A3013 RMK AO2 RAB52 SLP215 P0000 T00501028

Get Severe Weather Alerts

Thanks for signing up!

Be on the lookout for a verification email in your inbox.

You'll start receiving the daily forecast at 8 AM.

×

10-Day Weather Forecast

Almanac

Astronomy

Apr. 23, 2017 Rise Set
Actual Time
Civil Twilight
Nautical Twilight
Astronomical Twilight
Moon
Length of Visible Light
Length of Day
Tomorrow will be .
, % of the Moon is Illuminated

Today's Extremes

State Highs State Lows

Community

WunderPhotos

WunderBlog® & News

Nearby

Air Quality

  Air Quality AQ Index Pollutant
Not available.

Snow Depth

Station Depth Elevation

Earthquake Activity

City Distance Mag. Time & Date
Minimum magnitude displayed is 2.5.

Coastal Water Temperatures

Place Temperature

Stations

Nearby Weather Stations

Station Location Temp. Windchill Dew Point Humidity Wind Precip. Elev Updated Type
                   

Watches & Warnings

There are currently no watches in effect.